createdAt,value
2022-08-17T00:01:18.687Z,23.00
2022-08-17T00:05:24.394Z,23.10
2022-08-17T00:09:26.123Z,22.90
2022-08-17T00:13:37.337Z,22.70
2022-08-17T00:17:42.097Z,22.90
2022-08-17T00:22:29.977Z,22.70
2022-08-17T00:26:09.671Z,22.90
2022-08-17T00:30:13.189Z,22.80
2022-08-17T00:34:14.972Z,22.50
2022-08-17T00:38:16.938Z,22.40
2022-08-17T00:42:19.191Z,22.60
2022-08-17T00:46:34.821Z,22.50
2022-08-17T00:50:38.610Z,22.70
2022-08-17T00:54:42.890Z,22.90
2022-08-17T00:58:45.060Z,22.70
2022-08-17T01:02:48.711Z,22.90
2022-08-17T01:06:51.574Z,22.80
2022-08-17T01:10:58.691Z,22.50
2022-08-17T01:15:05.643Z,22.40
2022-08-17T01:19:17.659Z,22.20
2022-08-17T01:23:22.261Z,22.10
2022-08-17T01:27:24.475Z,21.80
2022-08-17T01:31:33.236Z,22.00
2022-08-17T01:35:34.920Z,22.10
2022-08-17T01:39:49.073Z,22.20
2022-08-17T01:44:03.252Z,21.80
2022-08-17T01:48:05.530Z,21.60
2022-08-17T01:52:10.047Z,21.80
2022-08-17T01:56:15.318Z,22.10
2022-08-17T02:00:18.235Z,22.10
2022-08-17T02:04:20.062Z,21.80
2022-08-17T02:08:37.220Z,21.80
2022-08-17T02:12:41.122Z,21.30
2022-08-17T02:16:42.861Z,21.80
2022-08-17T02:20:44.629Z,21.70
2022-08-17T02:25:00.592Z,21.70
2022-08-17T02:29:04.295Z,21.70
2022-08-17T02:33:09.290Z,21.20
2022-08-17T02:37:11.377Z,21.60
2022-08-17T02:41:13.271Z,21.50
2022-08-17T02:45:18.929Z,21.40
2022-08-17T02:49:20.717Z,21.40
2022-08-17T02:53:22.467Z,21.20
2022-08-17T02:57:24.243Z,21.00
2022-08-17T03:01:26.054Z,19.90
2022-08-17T03:05:31.023Z,20.10
2022-08-17T03:09:32.920Z,19.70
2022-08-17T03:13:34.726Z,19.90
2022-08-17T03:17:36.996Z,20.60
2022-08-17T03:21:38.723Z,21.10
2022-08-17T03:25:44.112Z,20.70
2022-08-17T03:29:45.962Z,19.80
2022-08-17T03:33:48.049Z,20.20
2022-08-17T03:38:00.100Z,20.50
2022-08-17T03:42:32.369Z,20.60
2022-08-17T03:46:53.274Z,20.90
2022-08-17T03:51:15.339Z,20.70
2022-08-17T03:55:36.094Z,20.00
2022-08-17T03:59:39.075Z,20.70
2022-08-17T04:03:40.834Z,20.00
2022-08-17T04:07:42.627Z,19.40
2022-08-17T04:11:44.907Z,19.40
2022-08-17T04:15:49.111Z,19.50
2022-08-17T04:19:50.936Z,19.40
2022-08-17T04:23:52.735Z,19.30
2022-08-17T04:27:55.697Z,20.20
2022-08-17T04:31:58.158Z,20.50
2022-08-17T04:36:03.038Z,20.10
2022-08-17T04:40:27.546Z,19.60
2022-08-17T04:44:37.719Z,19.40
2022-08-17T04:48:42.931Z,19.60
2022-08-17T04:52:47.661Z,20.00
2022-08-17T04:56:50.778Z,19.50
2022-08-17T05:00:52.659Z,19.70
2022-08-17T05:04:54.453Z,19.50
2022-08-17T05:08:58.920Z,19.90
2022-08-17T05:13:04.542Z,19.90
2022-08-17T05:17:10.936Z,20.00
2022-08-17T05:21:14.300Z,19.70
2022-08-17T05:25:25.539Z,20.60
2022-08-17T05:29:33.609Z,20.30
2022-08-17T05:33:44.300Z,19.80
2022-08-17T05:37:47.068Z,19.40
2022-08-17T05:41:48.870Z,20.70
2022-08-17T05:46:05.934Z,21.40
2022-08-17T05:50:10.140Z,21.40
2022-08-17T05:54:39.472Z,21.40
2022-08-17T05:58:41.849Z,21.60
2022-08-17T06:03:08.499Z,21.90
2022-08-17T06:07:37.937Z,22.00
2022-08-17T06:11:45.793Z,22.20
2022-08-17T06:16:31.118Z,22.50
2022-08-17T06:20:44.839Z,22.70
2022-08-17T06:24:57.068Z,22.50
2022-08-17T06:29:27.101Z,23.00
2022-08-17T06:33:35.761Z,23.10
2022-08-17T06:38:35.015Z,23.10
2022-08-17T06:42:54.943Z,23.50
2022-08-17T06:47:27.983Z,23.90
2022-08-17T06:51:40.378Z,23.90
2022-08-17T06:56:12.833Z,23.90
2022-08-17T07:00:36.550Z,24.00
2022-08-17T07:04:38.382Z,24.40
2022-08-17T07:08:52.067Z,24.70
2022-08-17T07:12:56.963Z,25.00
2022-08-17T07:17:03.070Z,25.10
2022-08-17T07:21:20.712Z,25.40
2022-08-17T07:25:26.150Z,25.40
2022-08-17T07:29:28.036Z,25.70
2022-08-17T07:33:33.085Z,25.90
2022-08-17T07:37:38.852Z,26.00
2022-08-17T07:41:53.122Z,26.10
2022-08-17T07:46:35.303Z,26.30
2022-08-17T07:50:37.028Z,26.40
2022-08-17T07:54:41.904Z,26.30
2022-08-17T07:58:43.785Z,26.60
2022-08-17T08:02:58.900Z,26.40
2022-08-17T08:07:03.667Z,26.80
2022-08-17T08:11:12.531Z,26.90
2022-08-17T08:15:20.218Z,27.10
2022-08-17T08:19:23.494Z,27.20
2022-08-17T08:23:42.919Z,27.20
2022-08-17T08:27:50.716Z,27.00
2022-08-17T08:32:07.713Z,27.30
2022-08-17T08:37:16.028Z,27.50
2022-08-17T08:41:19.871Z,27.70
2022-08-17T08:45:24.647Z,28.30
2022-08-17T08:50:03.342Z,28.10
2022-08-17T08:54:28.152Z,28.40
2022-08-17T08:58:43.604Z,28.50
2022-08-17T09:03:20.055Z,28.50
2022-08-17T09:07:42.253Z,28.30
2022-08-17T09:12:01.032Z,28.90
2022-08-17T09:16:15.291Z,28.70
2022-08-17T09:20:32.150Z,29.10
2022-08-17T09:24:40.066Z,28.50
2022-08-17T09:28:48.220Z,28.90
2022-08-17T09:33:07.062Z,29.50
2022-08-17T09:37:43.112Z,29.80
2022-08-17T09:41:58.680Z,29.90
2022-08-17T09:46:11.926Z,30.10
2022-08-17T09:51:03.940Z,30.00
2022-08-17T09:54:45.556Z,30.20
2022-08-17T09:59:03.310Z,30.40
2022-08-17T10:03:11.789Z,30.90
2022-08-17T10:07:28.780Z,31.20
2022-08-17T10:12:17.342Z,31.10
2022-08-17T10:16:33.927Z,31.40
2022-08-17T10:21:13.869Z,31.30
2022-08-17T10:25:53.470Z,31.40
2022-08-17T10:30:04.104Z,31.50
2022-08-17T10:34:40.435Z,31.60
2022-08-17T10:39:27.579Z,31.30
2022-08-17T10:44:36.966Z,31.50
2022-08-17T10:48:13.998Z,31.50
2022-08-17T10:52:28.063Z,31.90
2022-08-17T10:56:43.615Z,31.80
2022-08-17T11:00:54.429Z,31.60
2022-08-17T11:05:06.179Z,31.30
2022-08-17T11:09:28.418Z,31.00
2022-08-17T11:13:38.052Z,31.10
2022-08-17T11:18:03.083Z,31.30
2022-08-17T11:22:33.980Z,31.30
2022-08-17T11:26:38.812Z,31.80
2022-08-17T11:30:48.608Z,31.90
2022-08-17T11:35:05.131Z,31.20
2022-08-17T11:39:20.933Z,31.00
2022-08-17T11:43:25.774Z,31.40
2022-08-17T11:48:27.400Z,32.20
2022-08-17T11:52:38.553Z,32.00
2022-08-17T11:56:48.335Z,30.90
2022-08-17T12:00:51.865Z,30.10
2022-08-17T12:05:15.068Z,29.20
2022-08-17T12:09:27.366Z,29.50
2022-08-17T12:13:39.389Z,29.00
2022-08-17T12:17:46.253Z,28.90
2022-08-17T12:21:55.038Z,28.90
2022-08-17T12:26:02.292Z,29.60
2022-08-17T12:30:10.798Z,29.60
2022-08-17T12:34:17.193Z,29.40
2022-08-17T12:38:32.182Z,28.90
2022-08-17T12:42:39.372Z,28.90
2022-08-17T12:47:19.421Z,29.60
2022-08-17T12:51:24.398Z,28.70
2022-08-17T12:55:26.325Z,27.70
2022-08-17T12:59:34.610Z,27.50
2022-08-17T13:03:49.501Z,27.90
2022-08-17T13:07:53.253Z,28.00
2022-08-17T13:11:59.427Z,27.80
2022-08-17T13:16:09.469Z,27.60
2022-08-17T13:20:15.085Z,27.50
2022-08-17T13:24:19.096Z,27.90
2022-08-17T13:28:30.762Z,27.50
2022-08-17T13:32:43.913Z,27.90
2022-08-17T13:36:47.896Z,28.10
2022-08-17T13:40:53.419Z,28.20
2022-08-17T13:44:55.249Z,28.60
2022-08-17T13:49:09.658Z,29.20
2022-08-17T13:53:22.489Z,29.00
2022-08-17T13:57:25.455Z,28.90
2022-08-17T14:01:35.455Z,29.00
2022-08-17T14:05:39.613Z,28.50
2022-08-17T14:09:54.276Z,28.90
2022-08-17T14:13:56.133Z,28.70
2022-08-17T14:17:57.877Z,28.10
2022-08-17T14:22:00.440Z,28.50
2022-08-17T14:26:02.709Z,28.90
2022-08-17T14:30:07.747Z,29.70
2022-08-17T14:34:10.696Z,28.90
2022-08-17T14:38:12.459Z,28.20
2022-08-17T14:42:15.475Z,28.50
2022-08-17T14:46:17.228Z,29.30
2022-08-17T14:50:21.037Z,29.10
2022-08-17T14:54:34.193Z,29.50
2022-08-17T14:58:36.588Z,29.30
2022-08-17T15:03:00.011Z,29.20
2022-08-17T15:07:01.774Z,29.50
2022-08-17T15:11:04.307Z,29.80
2022-08-17T15:15:07.770Z,29.20
2022-08-17T15:19:09.631Z,29.70
2022-08-17T15:23:16.787Z,29.90
2022-08-17T15:27:31.515Z,30.30
2022-08-17T15:31:34.255Z,29.50
2022-08-17T15:35:36.215Z,30.30
2022-08-17T15:39:37.954Z,30.30
2022-08-17T15:43:40.137Z,31.00
2022-08-17T15:47:43.252Z,29.40
2022-08-17T15:51:45.948Z,30.10
2022-08-17T15:55:47.707Z,29.90
2022-08-17T15:59:59.069Z,30.50
2022-08-17T16:04:06.724Z,30.50
2022-08-17T16:08:10.952Z,30.50
2022-08-17T16:12:18.150Z,30.00
2022-08-17T16:16:19.922Z,29.00
2022-08-17T16:20:21.753Z,30.00
2022-08-17T16:24:23.568Z,31.00
2022-08-17T16:28:27.491Z,30.70
2022-08-17T16:32:39.165Z,30.90
2022-08-17T16:36:41.608Z,30.80
2022-08-17T16:40:56.273Z,30.60
2022-08-17T16:45:06.740Z,31.40
2022-08-17T16:49:09.470Z,31.30
2022-08-17T16:53:17.794Z,31.00
2022-08-17T16:57:19.566Z,31.00
2022-08-17T17:01:22.950Z,31.00
2022-08-17T17:05:34.599Z,30.30
2022-08-17T17:09:38.410Z,30.50
2022-08-17T17:14:01.512Z,30.60
2022-08-17T17:18:07.326Z,30.70
2022-08-17T17:22:50.777Z,30.50
2022-08-17T17:27:13.126Z,30.70
2022-08-17T17:31:18.511Z,30.90
2022-08-17T17:35:48.142Z,30.90
2022-08-17T17:40:01.768Z,30.80
2022-08-17T17:44:12.068Z,30.50
2022-08-17T17:48:13.809Z,30.10
2022-08-17T17:52:19.726Z,29.80
2022-08-17T17:56:43.687Z,29.40
2022-08-17T18:01:08.184Z,28.70
2022-08-17T18:05:34.665Z,29.00
2022-08-17T18:10:02.871Z,28.60
2022-08-17T18:14:17.283Z,28.90
2022-08-17T18:18:33.098Z,29.40
2022-08-17T18:22:34.866Z,29.80
2022-08-17T18:26:45.044Z,30.10
2022-08-17T18:31:21.386Z,30.20
2022-08-17T18:35:28.329Z,30.10
2022-08-17T18:39:30.744Z,30.00
2022-08-17T18:43:43.820Z,29.80
2022-08-17T18:47:55.757Z,29.30
2022-08-17T18:52:29.574Z,28.60
2022-08-17T18:56:34.168Z,28.90
2022-08-17T19:00:46.038Z,29.30
2022-08-17T19:05:10.682Z,28.80
2022-08-17T19:09:32.699Z,28.60
2022-08-17T19:13:39.697Z,28.40
2022-08-17T19:17:55.382Z,28.30
2022-08-17T19:22:28.955Z,28.10
2022-08-17T19:26:53.560Z,28.10
2022-08-17T19:31:03.491Z,28.50
2022-08-17T19:35:08.197Z,28.40
2022-08-17T19:39:40.833Z,28.10
2022-08-17T19:43:57.838Z,27.80
2022-08-17T19:48:36.118Z,28.20
2022-08-17T19:52:46.479Z,28.40
2022-08-17T19:57:13.490Z,27.80
2022-08-17T20:01:22.845Z,28.10
2022-08-17T20:06:11.052Z,27.90
2022-08-17T20:10:20.492Z,27.60
2022-08-17T20:14:35.285Z,28.20
2022-08-17T20:18:57.283Z,28.00
2022-08-17T20:23:28.094Z,27.70
2022-08-17T20:27:47.839Z,28.10
2022-08-17T20:31:57.578Z,28.20
2022-08-17T20:36:11.271Z,28.20
2022-08-17T20:40:20.954Z,28.40
2022-08-17T20:44:33.066Z,27.60
2022-08-17T20:48:40.144Z,28.00
2022-08-17T20:52:50.796Z,28.30
2022-08-17T20:56:57.222Z,28.00
2022-08-17T21:00:59.914Z,28.10
2022-08-17T21:05:24.176Z,28.40
2022-08-17T21:09:30.011Z,28.20
2022-08-17T21:13:31.741Z,28.20
2022-08-17T21:17:43.283Z,28.00
2022-08-17T21:22:24.405Z,27.20
2022-08-17T21:26:55.400Z,27.00
2022-08-17T21:31:01.100Z,26.30
2022-08-17T21:35:17.537Z,25.60
2022-08-17T21:39:31.472Z,25.70
2022-08-17T21:43:37.580Z,25.50
2022-08-17T21:47:43.911Z,26.10
2022-08-17T21:51:54.932Z,26.50
2022-08-17T21:55:56.797Z,26.50
2022-08-17T22:00:01.420Z,26.20
2022-08-17T22:04:05.205Z,26.00
2022-08-17T22:08:19.698Z,25.70
2022-08-17T22:12:24.173Z,25.00
2022-08-17T22:16:28.820Z,25.20
2022-08-17T22:20:31.702Z,25.10
2022-08-17T22:24:33.941Z,25.00
2022-08-17T22:28:45.618Z,25.00
2022-08-17T22:32:49.282Z,24.40
2022-08-17T22:37:28.422Z,24.40
2022-08-17T22:41:35.849Z,24.40
2022-08-17T22:45:45.648Z,24.40
2022-08-17T22:49:56.594Z,24.10
2022-08-17T22:54:20.385Z,24.40
2022-08-17T22:58:43.163Z,24.80
2022-08-17T23:03:12.003Z,24.70
2022-08-17T23:07:14.187Z,24.40
2022-08-17T23:11:16.199Z,24.30
2022-08-17T23:15:19.409Z,24.40
2022-08-17T23:19:22.065Z,24.80
2022-08-17T23:23:26.439Z,24.20
2022-08-17T23:27:31.591Z,24.10
2022-08-17T23:31:34.789Z,23.80
2022-08-17T23:35:40.296Z,23.30
2022-08-17T23:39:44.999Z,23.40
2022-08-17T23:43:49.777Z,23.90
2022-08-17T23:47:52.244Z,22.90
2022-08-17T23:51:55.115Z,22.80
2022-08-17T23:56:03.875Z,23.50
